Flugplatz Friedersdorf

Für EDCF sind keine METAR/TAF Berichte vorhanden.
Es werden die Flugwettermeldungen vom Flugplatz Berlin-Schönefeld International in 21 km Entfernung angezeigt.

Bericht für EDDB

vom 17.07. um 23:20 UTC

Wind 4 kt aus 70°

Sichtweite 10 km oder mehr

gute Sicht, keine Wolken < 5000 ft, keine CB, keine Wettererscheinungen (CAVOK)

Temperatur 14.0°C

Taupunkt 11.0°C

Luftfeuchtigkeit 82%

Luftdruck 1013 hPa

keine wesentliche Wetteränderung innerhalb den nächsten 2 Stunden zu erwarten

EDDB 172320Z 07004KT CAVOK 14/11 Q1013 NOSIG

Prognose für EDDB

vom 17.07. um 00:00 UTC

Zwischen 00:00 UTC und 00:00 UTC

Wind 4 kt aus 30°

Sichtweite 10 km oder mehr

keine signifikanten Wettererscheinungen

keine Wolken


Zwischen 00:00 und 00:00 UTC übergehend zu

Wind 5 kt aus 120°

Sichtweite 10 km oder mehr

keine signifikanten Wettererscheinungen

keine Wolken

TAF EDDB 172300Z 1800/1824 03004KT CAVOK BECMG 1807/1809 12005KT
Impressum